sensor_id;sensor_type;location;lat;lon;timestamp;P1;durP1;ratioP1;P2;durP2;ratioP2
4583;SDS011;2304;47.606;12.186;2023-02-28T00:00:35;9.60;;;5.70;;
4583;SDS011;2304;47.606;12.186;2023-02-28T00:05:39;9.87;;;6.60;;
4583;SDS011;2304;47.606;12.186;2023-02-28T00:10:42;9.27;;;6.20;;
4583;SDS011;2304;47.606;12.186;2023-02-28T00:15:44;8.10;;;6.30;;
4583;SDS011;2304;47.606;12.186;2023-02-28T00:20:48;14.23;;;5.77;;
4583;SDS011;2304;47.606;12.186;2023-02-28T00:25:50;9.50;;;5.43;;
4583;SDS011;2304;47.606;12.186;2023-02-28T00:30:51;9.07;;;6.00;;
4583;SDS011;2304;47.606;12.186;2023-02-28T00:36:02;11.30;;;5.60;;
4583;SDS011;2304;47.606;12.186;2023-02-28T00:41:04;7.53;;;5.60;;
4583;SDS011;2304;47.606;12.186;2023-02-28T00:46:07;11.07;;;6.20;;
4583;SDS011;2304;47.606;12.186;2023-02-28T00:51:10;11.10;;;6.63;;
4583;SDS011;2304;47.606;12.186;2023-02-28T00:56:12;8.93;;;6.10;;
4583;SDS011;2304;47.606;12.186;2023-02-28T01:01:14;10.50;;;6.90;;
4583;SDS011;2304;47.606;12.186;2023-02-28T01:06:17;6.60;;;5.13;;
4583;SDS011;2304;47.606;12.186;2023-02-28T01:11:19;8.30;;;5.67;;
4583;SDS011;2304;47.606;12.186;2023-02-28T01:16:21;11.50;;;6.57;;
4583;SDS011;2304;47.606;12.186;2023-02-28T01:21:24;13.17;;;7.30;;
4583;SDS011;2304;47.606;12.186;2023-02-28T01:26:26;8.83;;;5.90;;
4583;SDS011;2304;47.606;12.186;2023-02-28T01:31:27;8.23;;;5.90;;
4583;SDS011;2304;47.606;12.186;2023-02-28T01:36:31;13.70;;;7.90;;
4583;SDS011;2304;47.606;12.186;2023-02-28T01:41:33;8.43;;;6.43;;
4583;SDS011;2304;47.606;12.186;2023-02-28T01:46:35;9.20;;;6.33;;
4583;SDS011;2304;47.606;12.186;2023-02-28T01:51:40;9.40;;;5.53;;
4583;SDS011;2304;47.606;12.186;2023-02-28T01:56:47;7.13;;;6.00;;
4583;SDS011;2304;47.606;12.186;2023-02-28T02:01:52;7.37;;;6.00;;
4583;SDS011;2304;47.606;12.186;2023-02-28T02:06:56;7.70;;;5.90;;
4583;SDS011;2304;47.606;12.186;2023-02-28T02:11:59;9.87;;;6.37;;
4583;SDS011;2304;47.606;12.186;2023-02-28T02:17:17;9.60;;;6.97;;
4583;SDS011;2304;47.606;12.186;2023-02-28T02:22:37;10.67;;;7.13;;
4583;SDS011;2304;47.606;12.186;2023-02-28T02:27:59;11.40;;;7.17;;
4583;SDS011;2304;47.606;12.186;2023-02-28T02:33:27;12.40;;;7.23;;
4583;SDS011;2304;47.606;12.186;2023-02-28T02:38:41;14.10;;;10.03;;
4583;SDS011;2304;47.606;12.186;2023-02-28T02:43:50;17.17;;;9.83;;
4583;SDS011;2304;47.606;12.186;2023-02-28T02:48:54;11.67;;;6.97;;
4583;SDS011;2304;47.606;12.186;2023-02-28T02:54:00;13.23;;;9.43;;
4583;SDS011;2304;47.606;12.186;2023-02-28T02:59:07;10.20;;;8.00;;
4583;SDS011;2304;47.606;12.186;2023-02-28T03:04:13;11.07;;;7.33;;
4583;SDS011;2304;47.606;12.186;2023-02-28T03:09:19;8.23;;;6.80;;
4583;SDS011;2304;47.606;12.186;2023-02-28T03:19:47;9.40;;;7.20;;
4583;SDS011;2304;47.606;12.186;2023-02-28T03:24:59;10.83;;;7.17;;
4583;SDS011;2304;47.606;12.186;2023-02-28T03:30:09;12.43;;;7.07;;
4583;SDS011;2304;47.606;12.186;2023-02-28T03:35:16;11.33;;;7.10;;
4583;SDS011;2304;47.606;12.186;2023-02-28T03:40:24;12.13;;;7.20;;
4583;SDS011;2304;47.606;12.186;2023-02-28T03:45:30;10.33;;;7.13;;
4583;SDS011;2304;47.606;12.186;2023-02-28T03:50:37;8.43;;;6.80;;
4583;SDS011;2304;47.606;12.186;2023-02-28T03:55:42;9.60;;;7.60;;
4583;SDS011;2304;47.606;12.186;2023-02-28T04:00:48;14.53;;;8.20;;
4583;SDS011;2304;47.606;12.186;2023-02-28T04:05:54;12.27;;;8.37;;
4583;SDS011;2304;47.606;12.186;2023-02-28T04:11:00;8.57;;;6.60;;
4583;SDS011;2304;47.606;12.186;2023-02-28T04:16:06;9.90;;;7.30;;
4583;SDS011;2304;47.606;12.186;2023-02-28T04:21:12;15.10;;;7.90;;
4583;SDS011;2304;47.606;12.186;2023-02-28T04:26:15;12.13;;;7.17;;
4583;SDS011;2304;47.606;12.186;2023-02-28T04:31:17;9.40;;;7.07;;
4583;SDS011;2304;47.606;12.186;2023-02-28T04:36:19;25.13;;;7.33;;
4583;SDS011;2304;47.606;12.186;2023-02-28T04:41:24;12.93;;;7.70;;
4583;SDS011;2304;47.606;12.186;2023-02-28T04:46:25;10.93;;;6.90;;
4583;SDS011;2304;47.606;12.186;2023-02-28T04:51:27;10.23;;;7.20;;
4583;SDS011;2304;47.606;12.186;2023-02-28T04:56:30;10.83;;;7.80;;
4583;SDS011;2304;47.606;12.186;2023-02-28T05:01:33;10.47;;;8.10;;
4583;SDS011;2304;47.606;12.186;2023-02-28T05:06:36;17.70;;;11.20;;
4583;SDS011;2304;47.606;12.186;2023-02-28T05:11:39;16.93;;;10.23;;
4583;SDS011;2304;47.606;12.186;2023-02-28T05:16:42;11.50;;;8.30;;
4583;SDS011;2304;47.606;12.186;2023-02-28T05:21:48;12.73;;;9.03;;
4583;SDS011;2304;47.606;12.186;2023-02-28T05:26:54;12.77;;;7.40;;
4583;SDS011;2304;47.606;12.186;2023-02-28T05:31:56;10.27;;;8.03;;
4583;SDS011;2304;47.606;12.186;2023-02-28T05:36:57;21.53;;;11.73;;
4583;SDS011;2304;47.606;12.186;2023-02-28T05:42:01;16.73;;;9.13;;
4583;SDS011;2304;47.606;12.186;2023-02-28T05:47:03;14.63;;;8.90;;
4583;SDS011;2304;47.606;12.186;2023-02-28T05:52:04;13.50;;;9.33;;
4583;SDS011;2304;47.606;12.186;2023-02-28T05:57:07;15.53;;;10.27;;
4583;SDS011;2304;47.606;12.186;2023-02-28T06:02:10;16.17;;;10.33;;
4583;SDS011;2304;47.606;12.186;2023-02-28T06:07:14;30.70;;;10.13;;
4583;SDS011;2304;47.606;12.186;2023-02-28T06:12:18;19.50;;;10.40;;
4583;SDS011;2304;47.606;12.186;2023-02-28T06:17:20;15.93;;;10.90;;
4583;SDS011;2304;47.606;12.186;2023-02-28T06:22:22;20.77;;;13.20;;
4583;SDS011;2304;47.606;12.186;2023-02-28T06:27:25;16.10;;;11.57;;
4583;SDS011;2304;47.606;12.186;2023-02-28T06:32:27;19.30;;;12.03;;
4583;SDS011;2304;47.606;12.186;2023-02-28T06:37:30;17.90;;;12.07;;
4583;SDS011;2304;47.606;12.186;2023-02-28T06:42:33;15.77;;;10.63;;
4583;SDS011;2304;47.606;12.186;2023-02-28T06:47:35;13.90;;;8.97;;
4583;SDS011;2304;47.606;12.186;2023-02-28T06:52:38;16.10;;;10.97;;
4583;SDS011;2304;47.606;12.186;2023-02-28T06:57:41;19.47;;;12.73;;
4583;SDS011;2304;47.606;12.186;2023-02-28T07:02:43;19.57;;;11.10;;
4583;SDS011;2304;47.606;12.186;2023-02-28T07:07:44;20.63;;;11.83;;
4583;SDS011;2304;47.606;12.186;2023-02-28T07:12:48;12.83;;;9.37;;
4583;SDS011;2304;47.606;12.186;2023-02-28T07:17:51;13.30;;;10.40;;
4583;SDS011;2304;47.606;12.186;2023-02-28T07:22:54;20.83;;;11.97;;
4583;SDS011;2304;47.606;12.186;2023-02-28T07:27:57;14.80;;;10.50;;
4583;SDS011;2304;47.606;12.186;2023-02-28T07:33:00;15.90;;;9.27;;
4583;SDS011;2304;47.606;12.186;2023-02-28T07:38:02;16.10;;;9.30;;
4583;SDS011;2304;47.606;12.186;2023-02-28T07:43:05;13.40;;;8.40;;
4583;SDS011;2304;47.606;12.186;2023-02-28T07:48:07;17.33;;;10.63;;
4583;SDS011;2304;47.606;12.186;2023-02-28T07:53:09;25.13;;;13.90;;
4583;SDS011;2304;47.606;12.186;2023-02-28T07:58:13;28.60;;;15.27;;
4583;SDS011;2304;47.606;12.186;2023-02-28T08:03:14;17.27;;;10.90;;
4583;SDS011;2304;47.606;12.186;2023-02-28T08:08:17;15.30;;;10.60;;
4583;SDS011;2304;47.606;12.186;2023-02-28T08:13:20;19.50;;;11.13;;
4583;SDS011;2304;47.606;12.186;2023-02-28T08:18:22;20.93;;;12.10;;
4583;SDS011;2304;47.606;12.186;2023-02-28T08:23:25;22.70;;;11.60;;
4583;SDS011;2304;47.606;12.186;2023-02-28T08:28:28;38.60;;;14.63;;
4583;SDS011;2304;47.606;12.186;2023-02-28T08:33:30;20.23;;;12.37;;
4583;SDS011;2304;47.606;12.186;2023-02-28T08:38:33;19.10;;;12.40;;
4583;SDS011;2304;47.606;12.186;2023-02-28T08:43:36;17.57;;;11.10;;
4583;SDS011;2304;47.606;12.186;2023-02-28T08:48:39;35.97;;;12.67;;
4583;SDS011;2304;47.606;12.186;2023-02-28T08:53:41;19.67;;;11.40;;
4583;SDS011;2304;47.606;12.186;2023-02-28T08:58:45;21.43;;;11.87;;
4583;SDS011;2304;47.606;12.186;2023-02-28T09:03:48;19.90;;;10.30;;
4583;SDS011;2304;47.606;12.186;2023-02-28T09:08:51;19.10;;;11.37;;
4583;SDS011;2304;47.606;12.186;2023-02-28T09:13:55;19.13;;;10.13;;
4583;SDS011;2304;47.606;12.186;2023-02-28T09:18:56;15.40;;;9.37;;
4583;SDS011;2304;47.606;12.186;2023-02-28T09:23:58;20.00;;;9.50;;
4583;SDS011;2304;47.606;12.186;2023-02-28T09:29:02;20.80;;;11.07;;
4583;SDS011;2304;47.606;12.186;2023-02-28T09:34:04;18.77;;;10.40;;
4583;SDS011;2304;47.606;12.186;2023-02-28T09:39:06;13.87;;;10.07;;
4583;SDS011;2304;47.606;12.186;2023-02-28T09:44:11;20.27;;;9.90;;
4583;SDS011;2304;47.606;12.186;2023-02-28T09:49:19;18.67;;;9.70;;
4583;SDS011;2304;47.606;12.186;2023-02-28T09:54:26;16.40;;;10.43;;
4583;SDS011;2304;47.606;12.186;2023-02-28T09:59:35;18.13;;;9.87;;
4583;SDS011;2304;47.606;12.186;2023-02-28T10:04:43;21.80;;;10.37;;
4583;SDS011;2304;47.606;12.186;2023-02-28T10:09:54;12.70;;;9.63;;
4583;SDS011;2304;47.606;12.186;2023-02-28T10:15:00;16.30;;;10.50;;
4583;SDS011;2304;47.606;12.186;2023-02-28T10:20:05;15.67;;;10.47;;
4583;SDS011;2304;47.606;12.186;2023-02-28T10:25:15;18.73;;;11.70;;
4583;SDS011;2304;47.606;12.186;2023-02-28T10:30:21;16.53;;;11.10;;
4583;SDS011;2304;47.606;12.186;2023-02-28T10:35:23;19.60;;;12.80;;
4583;SDS011;2304;47.606;12.186;2023-02-28T10:40:29;19.10;;;14.30;;
4583;SDS011;2304;47.606;12.186;2023-02-28T10:45:35;18.67;;;13.30;;
4583;SDS011;2304;47.606;12.186;2023-02-28T10:50:39;14.00;;;11.40;;
4583;SDS011;2304;47.606;12.186;2023-02-28T10:55:45;17.33;;;11.00;;
4583;SDS011;2304;47.606;12.186;2023-02-28T11:00:58;13.93;;;11.80;;
4583;SDS011;2304;47.606;12.186;2023-02-28T11:06:04;14.20;;;10.70;;
4583;SDS011;2304;47.606;12.186;2023-02-28T11:11:08;14.40;;;10.60;;
4583;SDS011;2304;47.606;12.186;2023-02-28T11:16:12;16.00;;;10.87;;
4583;SDS011;2304;47.606;12.186;2023-02-28T11:21:16;14.57;;;11.13;;
4583;SDS011;2304;47.606;12.186;2023-02-28T11:26:35;16.27;;;11.93;;
4583;SDS011;2304;47.606;12.186;2023-02-28T11:31:39;17.40;;;11.63;;
4583;SDS011;2304;47.606;12.186;2023-02-28T11:36:41;19.00;;;12.20;;
4583;SDS011;2304;47.606;12.186;2023-02-28T11:41:54;15.77;;;11.67;;
4583;SDS011;2304;47.606;12.186;2023-02-28T11:47:10;16.23;;;11.50;;
4583;SDS011;2304;47.606;12.186;2023-02-28T11:52:20;15.13;;;12.30;;
4583;SDS011;2304;47.606;12.186;2023-02-28T11:57:35;17.60;;;13.10;;
4583;SDS011;2304;47.606;12.186;2023-02-28T12:02:50;18.83;;;13.97;;
4583;SDS011;2304;47.606;12.186;2023-02-28T12:08:07;19.50;;;13.87;;
4583;SDS011;2304;47.606;12.186;2023-02-28T12:13:18;20.87;;;14.20;;
4583;SDS011;2304;47.606;12.186;2023-02-28T12:18:32;21.70;;;13.30;;
4583;SDS011;2304;47.606;12.186;2023-02-28T12:23:57;17.83;;;13.53;;
4583;SDS011;2304;47.606;12.186;2023-02-28T12:29:12;21.73;;;15.30;;
4583;SDS011;2304;47.606;12.186;2023-02-28T12:34:21;19.37;;;14.77;;
4583;SDS011;2304;47.606;12.186;2023-02-28T12:39:28;29.80;;;17.23;;
4583;SDS011;2304;47.606;12.186;2023-02-28T12:44:35;19.13;;;15.03;;
4583;SDS011;2304;47.606;12.186;2023-02-28T12:49:48;21.03;;;14.50;;
4583;SDS011;2304;47.606;12.186;2023-02-28T12:54:52;22.60;;;17.07;;
4583;SDS011;2304;47.606;12.186;2023-02-28T13:00:03;23.20;;;14.40;;
4583;SDS011;2304;47.606;12.186;2023-02-28T13:05:29;27.73;;;15.53;;
4583;SDS011;2304;47.606;12.186;2023-02-28T13:10:45;19.10;;;15.67;;
4583;SDS011;2304;47.606;12.186;2023-02-28T13:15:59;19.40;;;13.37;;
4583;SDS011;2304;47.606;12.186;2023-02-28T13:21:05;21.40;;;14.80;;
4583;SDS011;2304;47.606;12.186;2023-02-28T13:26:08;19.90;;;15.20;;
4583;SDS011;2304;47.606;12.186;2023-02-28T13:31:13;24.73;;;15.30;;
4583;SDS011;2304;47.606;12.186;2023-02-28T13:36:29;19.07;;;14.67;;
4583;SDS011;2304;47.606;12.186;2023-02-28T13:41:46;19.53;;;14.93;;
4583;SDS011;2304;47.606;12.186;2023-02-28T13:52:26;23.30;;;15.50;;
4583;SDS011;2304;47.606;12.186;2023-02-28T13:57:32;23.37;;;17.40;;
4583;SDS011;2304;47.606;12.186;2023-02-28T14:02:57;21.80;;;15.50;;
4583;SDS011;2304;47.606;12.186;2023-02-28T14:08:13;24.67;;;17.10;;
4583;SDS011;2304;47.606;12.186;2023-02-28T14:13:37;23.03;;;16.97;;
4583;SDS011;2304;47.606;12.186;2023-02-28T14:18:47;25.67;;;17.00;;
4583;SDS011;2304;47.606;12.186;2023-02-28T14:29:45;21.37;;;16.27;;
4583;SDS011;2304;47.606;12.186;2023-02-28T14:35:02;23.00;;;15.77;;
4583;SDS011;2304;47.606;12.186;2023-02-28T14:40:16;25.47;;;17.70;;
4583;SDS011;2304;47.606;12.186;2023-02-28T14:45:22;25.40;;;17.23;;
4583;SDS011;2304;47.606;12.186;2023-02-28T14:50:25;21.37;;;15.57;;
4583;SDS011;2304;47.606;12.186;2023-02-28T14:55:33;25.27;;;18.40;;
4583;SDS011;2304;47.606;12.186;2023-02-28T15:00:36;21.40;;;16.20;;
4583;SDS011;2304;47.606;12.186;2023-02-28T15:05:54;21.80;;;15.60;;
4583;SDS011;2304;47.606;12.186;2023-02-28T15:10:58;25.37;;;17.00;;
4583;SDS011;2304;47.606;12.186;2023-02-28T15:16:03;22.50;;;16.80;;
4583;SDS011;2304;47.606;12.186;2023-02-28T15:21:07;25.20;;;17.03;;
4583;SDS011;2304;47.606;12.186;2023-02-28T15:26:16;23.30;;;16.07;;
4583;SDS011;2304;47.606;12.186;2023-02-28T15:31:21;25.37;;;16.97;;
4583;SDS011;2304;47.606;12.186;2023-02-28T15:36:28;25.70;;;17.30;;
4583;SDS011;2304;47.606;12.186;2023-02-28T15:41:36;22.73;;;17.10;;
4583;SDS011;2304;47.606;12.186;2023-02-28T15:46:39;25.23;;;17.63;;
4583;SDS011;2304;47.606;12.186;2023-02-28T15:51:43;26.30;;;18.33;;
4583;SDS011;2304;47.606;12.186;2023-02-28T15:56:46;25.17;;;18.73;;
4583;SDS011;2304;47.606;12.186;2023-02-28T16:02:03;29.43;;;19.73;;
4583;SDS011;2304;47.606;12.186;2023-02-28T16:07:13;27.43;;;19.53;;
4583;SDS011;2304;47.606;12.186;2023-02-28T16:12:17;31.77;;;18.73;;
4583;SDS011;2304;47.606;12.186;2023-02-28T16:17:20;27.77;;;18.27;;
4583;SDS011;2304;47.606;12.186;2023-02-28T16:22:23;26.23;;;18.87;;
4583;SDS011;2304;47.606;12.186;2023-02-28T16:27:32;28.30;;;18.63;;
4583;SDS011;2304;47.606;12.186;2023-02-28T16:32:37;30.17;;;18.70;;
4583;SDS011;2304;47.606;12.186;2023-02-28T16:37:38;28.20;;;17.70;;
4583;SDS011;2304;47.606;12.186;2023-02-28T16:42:42;28.60;;;19.33;;
4583;SDS011;2304;47.606;12.186;2023-02-28T16:47:46;28.73;;;18.77;;
4583;SDS011;2304;47.606;12.186;2023-02-28T16:52:48;31.90;;;20.40;;
4583;SDS011;2304;47.606;12.186;2023-02-28T16:57:54;29.93;;;19.93;;
4583;SDS011;2304;47.606;12.186;2023-02-28T17:02:57;31.40;;;18.57;;
4583;SDS011;2304;47.606;12.186;2023-02-28T17:07:59;30.63;;;19.03;;
4583;SDS011;2304;47.606;12.186;2023-02-28T17:13:02;30.63;;;19.80;;
4583;SDS011;2304;47.606;12.186;2023-02-28T17:18:04;30.40;;;19.90;;
4583;SDS011;2304;47.606;12.186;2023-02-28T17:23:07;32.93;;;22.03;;
4583;SDS011;2304;47.606;12.186;2023-02-28T17:28:10;33.93;;;21.20;;
4583;SDS011;2304;47.606;12.186;2023-02-28T17:33:12;31.53;;;21.07;;
4583;SDS011;2304;47.606;12.186;2023-02-28T17:38:15;38.60;;;24.00;;
4583;SDS011;2304;47.606;12.186;2023-02-28T17:43:19;33.57;;;22.10;;
4583;SDS011;2304;47.606;12.186;2023-02-28T17:48:21;40.30;;;23.10;;
4583;SDS011;2304;47.606;12.186;2023-02-28T17:53:23;35.03;;;23.00;;
4583;SDS011;2304;47.606;12.186;2023-02-28T17:58:28;35.43;;;22.20;;
4583;SDS011;2304;47.606;12.186;2023-02-28T18:03:31;31.40;;;20.80;;
4583;SDS011;2304;47.606;12.186;2023-02-28T18:08:32;35.17;;;22.70;;
4583;SDS011;2304;47.606;12.186;2023-02-28T18:13:37;39.07;;;25.50;;
4583;SDS011;2304;47.606;12.186;2023-02-28T18:18:39;51.50;;;27.03;;
4583;SDS011;2304;47.606;12.186;2023-02-28T18:23:42;37.10;;;24.17;;
4583;SDS011;2304;47.606;12.186;2023-02-28T18:28:49;39.43;;;23.20;;
4583;SDS011;2304;47.606;12.186;2023-02-28T18:33:51;41.97;;;27.40;;
4583;SDS011;2304;47.606;12.186;2023-02-28T18:38:53;43.87;;;26.77;;
4583;SDS011;2304;47.606;12.186;2023-02-28T18:43:56;56.87;;;33.83;;
4583;SDS011;2304;47.606;12.186;2023-02-28T18:49:01;64.53;;;36.17;;
4583;SDS011;2304;47.606;12.186;2023-02-28T18:54:03;66.33;;;36.17;;
4583;SDS011;2304;47.606;12.186;2023-02-28T18:59:06;68.27;;;37.27;;
4583;SDS011;2304;47.606;12.186;2023-02-28T19:04:09;67.27;;;37.63;;
4583;SDS011;2304;47.606;12.186;2023-02-28T19:09:12;52.60;;;31.60;;
4583;SDS011;2304;47.606;12.186;2023-02-28T19:14:16;88.90;;;54.13;;
4583;SDS011;2304;47.606;12.186;2023-02-28T19:19:17;63.43;;;38.90;;
4583;SDS011;2304;47.606;12.186;2023-02-28T19:24:19;45.90;;;30.80;;
4583;SDS011;2304;47.606;12.186;2023-02-28T19:29:22;42.80;;;29.03;;
4583;SDS011;2304;47.606;12.186;2023-02-28T19:34:24;38.83;;;25.43;;
4583;SDS011;2304;47.606;12.186;2023-02-28T19:39:26;44.20;;;22.67;;
4583;SDS011;2304;47.606;12.186;2023-02-28T19:44:29;32.57;;;22.20;;
4583;SDS011;2304;47.606;12.186;2023-02-28T19:49:31;37.00;;;23.17;;
4583;SDS011;2304;47.606;12.186;2023-02-28T19:54:33;39.50;;;22.90;;
4583;SDS011;2304;47.606;12.186;2023-02-28T19:59:36;39.73;;;22.63;;
4583;SDS011;2304;47.606;12.186;2023-02-28T20:04:38;38.57;;;23.47;;
4583;SDS011;2304;47.606;12.186;2023-02-28T20:09:40;38.17;;;23.70;;
4583;SDS011;2304;47.606;12.186;2023-02-28T20:14:45;33.30;;;21.77;;
4583;SDS011;2304;47.606;12.186;2023-02-28T20:19:46;34.03;;;21.50;;
4583;SDS011;2304;47.606;12.186;2023-02-28T20:24:48;31.77;;;20.87;;
4583;SDS011;2304;47.606;12.186;2023-02-28T20:29:51;39.63;;;24.50;;
4583;SDS011;2304;47.606;12.186;2023-02-28T20:34:53;37.10;;;20.57;;
4583;SDS011;2304;47.606;12.186;2023-02-28T20:39:55;30.20;;;19.83;;
4583;SDS011;2304;47.606;12.186;2023-02-28T20:44:58;36.50;;;21.77;;
4583;SDS011;2304;47.606;12.186;2023-02-28T20:50:00;30.30;;;19.80;;
4583;SDS011;2304;47.606;12.186;2023-02-28T20:55:02;30.90;;;20.30;;
4583;SDS011;2304;47.606;12.186;2023-02-28T21:00:06;36.13;;;21.80;;
4583;SDS011;2304;47.606;12.186;2023-02-28T21:05:09;39.53;;;22.50;;
4583;SDS011;2304;47.606;12.186;2023-02-28T21:10:11;37.00;;;21.00;;
4583;SDS011;2304;47.606;12.186;2023-02-28T21:15:15;36.23;;;21.80;;
4583;SDS011;2304;47.606;12.186;2023-02-28T21:20:17;37.07;;;22.70;;
4583;SDS011;2304;47.606;12.186;2023-02-28T21:25:21;33.07;;;21.40;;
4583;SDS011;2304;47.606;12.186;2023-02-28T21:30:25;32.37;;;21.43;;
4583;SDS011;2304;47.606;12.186;2023-02-28T21:35:27;33.13;;;20.77;;
4583;SDS011;2304;47.606;12.186;2023-02-28T21:40:29;43.67;;;23.57;;
4583;SDS011;2304;47.606;12.186;2023-02-28T21:45:33;92.43;;;36.27;;
4583;SDS011;2304;47.606;12.186;2023-02-28T21:50:35;35.77;;;20.60;;
4583;SDS011;2304;47.606;12.186;2023-02-28T21:55:37;33.33;;;20.83;;
4583;SDS011;2304;47.606;12.186;2023-02-28T22:00:40;42.40;;;23.10;;
4583;SDS011;2304;47.606;12.186;2023-02-28T22:05:44;34.27;;;21.00;;
4583;SDS011;2304;47.606;12.186;2023-02-28T22:10:46;44.03;;;23.03;;
4583;SDS011;2304;47.606;12.186;2023-02-28T22:15:49;32.20;;;20.00;;
4583;SDS011;2304;47.606;12.186;2023-02-28T22:20:52;34.43;;;21.73;;
4583;SDS011;2304;47.606;12.186;2023-02-28T22:25:55;31.10;;;19.07;;
4583;SDS011;2304;47.606;12.186;2023-02-28T22:30:58;30.73;;;19.87;;
4583;SDS011;2304;47.606;12.186;2023-02-28T22:36:03;33.23;;;21.07;;
4583;SDS011;2304;47.606;12.186;2023-02-28T22:41:06;41.53;;;21.50;;
4583;SDS011;2304;47.606;12.186;2023-02-28T22:46:10;39.60;;;21.20;;
4583;SDS011;2304;47.606;12.186;2023-02-28T22:51:14;40.70;;;23.70;;
4583;SDS011;2304;47.606;12.186;2023-02-28T22:56:19;32.77;;;21.30;;
4583;SDS011;2304;47.606;12.186;2023-02-28T23:01:24;31.70;;;20.67;;
4583;SDS011;2304;47.606;12.186;2023-02-28T23:06:27;29.50;;;19.23;;
4583;SDS011;2304;47.606;12.186;2023-02-28T23:11:32;34.33;;;21.13;;
4583;SDS011;2304;47.606;12.186;2023-02-28T23:16:37;39.30;;;23.03;;
4583;SDS011;2304;47.606;12.186;2023-02-28T23:21:40;36.40;;;22.93;;
4583;SDS011;2304;47.606;12.186;2023-02-28T23:26:43;34.07;;;22.47;;
4583;SDS011;2304;47.606;12.186;2023-02-28T23:31:47;38.93;;;22.27;;
4583;SDS011;2304;47.606;12.186;2023-02-28T23:36:49;36.20;;;22.20;;
4583;SDS011;2304;47.606;12.186;2023-02-28T23:41:51;33.20;;;21.43;;
4583;SDS011;2304;47.606;12.186;2023-02-28T23:46:55;37.07;;;20.53;;
4583;SDS011;2304;47.606;12.186;2023-02-28T23:51:57;33.67;;;20.63;;
4583;SDS011;2304;47.606;12.186;2023-02-28T23:56:59;33.17;;;20.13;;
